Time;durP1;ratioP1;P1;durP2;ratioP2;P2;SDS_P1;SDS_P2;PMS_P1;PMS_P2;Temp;Humidity;BMP_temperature;BMP_pressure;BME280_temperature;BME280_humidity;BME280_pressure;Samples;Min_cycle;Max_cycle;Signal;HPM_P1;HPM_P2
2021/03/29 00:00:55;;;;;;;8.65;3.10;;;;;;;8.69;59.84;101701.63;20826964;28;20115;-74
2021/03/29 00:10:58;;;;;;;11.90;3.03;;;;;;;8.69;60.03;101717.28;20834157;28;20073;-74
2021/03/29 00:21:05;;;;;;;12.30;4.32;;;;;;;8.57;60.27;101708.03;20826674;28;20436;-74
2021/03/29 00:31:09;;;;;;;13.95;4.38;;;;;;;8.46;60.85;101703.06;20824866;28;20493;-74
2021/03/29 00:41:11;;;;;;;9.82;3.95;;;;;;;8.31;61.21;101702.59;20835332;28;20453;-74
2021/03/29 00:51:18;;;;;;;10.55;3.97;;;;;;;8.14;61.83;101700.34;20824052;28;20054;-74
2021/03/29 01:01:23;;;;;;;9.75;3.50;;;;;;;8.04;62.02;101704.03;20742547;28;20042;-73
2021/03/29 01:11:31;;;;;;;12.55;3.42;;;;;;;7.91;62.56;101718.25;20815907;28;20470;-73
2021/03/29 01:21:45;;;;;;;8.43;3.78;;;;;;;7.79;62.67;101708.09;20930612;28;20056;-73
2021/03/29 01:31:48;;;;;;;8.55;3.72;;;;;;;7.58;64.27;101699.84;20890346;28;20048;-74
2021/03/29 01:41:50;;;;;;;12.05;3.58;;;;;;;7.46;64.79;101707.06;20890978;28;20041;-73
2021/03/29 01:51:53;;;;;;;10.68;3.33;;;;;;;7.22;67.11;101711.00;20901280;28;20079;-74
2021/03/29 02:01:55;;;;;;;7.30;2.70;;;;;;;6.99;67.57;101715.81;20899675;28;20048;-74
2021/03/29 02:11:57;;;;;;;8.63;3.13;;;;;;;6.90;68.17;101710.78;20870414;28;20122;-73
2021/03/29 02:21:58;;;;;;;6.45;2.63;;;;;;;6.77;68.13;101715.31;20881590;28;20558;-74
2021/03/29 02:32:00;;;;;;;12.45;3.78;;;;;;;6.60;69.26;101715.63;20897791;28;20653;-73
2021/03/29 02:42:01;;;;;;;12.15;4.55;;;;;;;6.44;70.16;101720.22;20857282;28;20041;-73
2021/03/29 02:52:03;;;;;;;9.27;3.35;;;;;;;6.34;70.09;101729.06;20809721;28;20406;-73
2021/03/29 03:02:07;;;;;;;10.27;3.10;;;;;;;6.30;69.53;101731.69;20732460;28;20137;-74
2021/03/29 03:12:09;;;;;;;7.97;2.97;;;;;;;6.31;69.39;101733.41;20829519;28;20053;-74
2021/03/29 03:22:13;;;;;;;7.65;2.20;;;;;;;6.21;69.82;101737.03;20912158;28;20124;-73
2021/03/29 03:32:15;;;;;;;7.43;2.90;;;;;;;6.13;71.64;101741.50;20910987;28;20041;-73
2021/03/29 03:42:17;;;;;;;10.82;3.20;;;;;;;6.01;70.96;101740.78;20897712;28;20122;-73
2021/03/29 03:52:18;;;;;;;8.60;2.88;;;;;;;5.95;71.05;101738.28;20893107;28;20052;-73
2021/03/29 04:02:20;;;;;;;13.02;3.95;;;;;;;6.00;71.92;101738.19;20911447;28;20703;-73
2021/03/29 04:12:21;;;;;;;10.43;4.75;;;;;;;5.97;72.84;101744.31;20896046;28;20664;-74
2021/03/29 04:22:22;;;;;;;11.73;4.30;;;;;;;5.87;73.38;101758.31;20906867;28;20048;-73
2021/03/29 04:32:23;;;;;;;13.48;3.85;;;;;;;5.67;74.31;101757.69;20906115;28;20416;-73
2021/03/29 04:42:24;;;;;;;9.70;3.75;;;;;;;5.58;74.90;101778.56;20893428;28;20048;-73
2021/03/29 04:52:25;;;;;;;9.55;4.30;;;;;;;5.51;75.43;101775.19;20761153;28;20049;-73
2021/03/29 05:02:26;;;;;;;9.48;4.05;;;;;;;5.40;76.94;101782.22;20739912;28;20064;-73
2021/03/29 05:12:28;;;;;;;15.73;6.68;;;;;;;5.27;77.58;101779.78;20830878;28;20044;-74
2021/03/29 05:22:29;;;;;;;15.52;6.45;;;;;;;5.24;77.72;101787.59;20903239;28;20049;-73
2021/03/29 05:32:30;;;;;;;14.90;6.05;;;;;;;5.24;77.58;101792.78;20901629;28;20044;-73
2021/03/29 05:42:32;;;;;;;11.50;5.65;;;;;;;5.29;78.61;101801.38;20888341;28;20604;-73
2021/03/29 05:52:34;;;;;;;12.68;5.03;;;;;;;5.35;79.05;101811.69;20901592;28;20048;-73
2021/03/29 06:02:35;;;;;;;19.85;5.70;;;;;;;5.37;78.01;101834.19;20899147;28;20041;-73
2021/03/29 06:12:44;;;;;;;12.82;5.47;;;;;;;5.46;77.29;101841.88;20868714;28;20044;-73
2021/03/29 06:22:45;;;;;;;9.90;4.65;;;;;;;5.67;75.75;101852.91;20898537;28;20057;-73
2021/03/29 06:33:17;;;;;;;27.23;8.38;;;;;;;5.97;74.51;101863.88;20840761;28;20048;-73
2021/03/29 06:43:29;;;;;;;15.57;5.90;;;;;;;6.33;72.97;101866.88;20856185;28;20485;-74
2021/03/29 06:53:31;;;;;;;16.52;6.80;;;;;;;6.66;71.32;101874.19;20849024;28;20052;-73
2021/03/29 07:03:32;;;;;;;12.70;5.70;;;;;;;7.02;69.99;101859.75;20862234;28;20056;-73
2021/03/29 07:13:34;;;;;;;10.57;4.65;;;;;;;7.67;67.57;101876.84;20867025;28;20045;-73
2021/03/29 07:23:39;;;;;;;11.52;4.00;;;;;;;8.12;65.12;101882.06;20837014;28;20072;-73
2021/03/29 07:33:57;;;;;;;12.90;4.15;;;;;;;8.51;63.56;101883.88;20885110;28;20071;-73
2021/03/29 07:44:12;;;;;;;9.40;3.50;;;;;;;9.15;61.67;101887.56;20878816;28;20094;-73
2021/03/29 07:54:51;;;;;;;11.07;3.58;;;;;;;9.69;60.22;101894.94;20872837;28;20053;-73
2021/03/29 08:05:05;;;;;;;9.90;3.33;;;;;;;10.11;58.80;101893.72;20869173;28;20481;-72
2021/03/29 08:15:11;;;;;;;9.27;3.33;;;;;;;10.44;58.05;101897.16;20866570;28;20485;-71
2021/03/29 08:25:30;;;;;;;9.50;3.70;;;;;;;10.88;57.31;101887.06;20846724;28;20057;-70
2021/03/29 08:35:32;;;;;;;11.23;3.55;;;;;;;11.43;54.26;101901.84;20858591;28;20037;-72
2021/03/29 08:45:34;;;;;;;7.68;2.67;;;;;;;12.03;51.19;101903.31;20848685;28;20056;-71
2021/03/29 08:55:37;;;;;;;9.55;2.63;;;;;;;12.52;48.62;101897.94;20822005;28;20136;-71
2021/03/29 09:05:38;;;;;;;7.07;2.63;;;;;;;13.00;47.52;101899.56;20848991;28;20045;-70
2021/03/29 09:15:42;;;;;;;6.65;2.38;;;;;;;13.49;45.14;101915.06;20844606;28;20053;-70
2021/03/29 09:25:45;;;;;;;9.35;2.30;;;;;;;13.98;43.76;101905.03;20839131;28;20053;-71
2021/03/29 09:35:46;;;;;;;7.80;2.20;;;;;;;14.32;44.22;101902.63;20829646;28;20497;-70
2021/03/29 09:45:48;;;;;;;8.43;2.20;;;;;;;14.42;42.46;101903.94;20832562;28;20041;-70
2021/03/29 09:55:50;;;;;;;7.97;1.65;;;;;;;14.65;42.11;101912.53;20843048;28;20132;-70
2021/03/29 10:05:52;;;;;;;7.55;2.28;;;;;;;15.17;40.64;101908.25;20837309;28;20497;-70
2021/03/29 10:15:53;;;;;;;6.82;1.90;;;;;;;15.25;40.83;101893.75;20821450;28;20464;-70
2021/03/29 10:26:28;;;;;;;7.78;2.03;;;;;;;15.81;40.48;101890.03;20811386;28;20049;-70
2021/03/29 10:36:30;;;;;;;6.25;2.00;;;;;;;15.77;40.38;101888.47;20828244;28;20042;-70
2021/03/29 10:46:32;;;;;;;6.50;1.83;;;;;;;16.04;36.77;101879.13;20827359;28;20046;-70
2021/03/29 10:56:33;;;;;;;9.75;2.00;;;;;;;16.51;38.10;101870.38;20822697;28;20049;-70
2021/03/29 11:06:34;;;;;;;6.80;1.95;;;;;;;16.70;36.52;101859.66;20804463;28;20493;-70
2021/03/29 11:16:35;;;;;;;8.88;1.90;;;;;;;16.81;34.97;101852.81;20823000;28;20651;-70
2021/03/29 11:26:39;;;;;;;8.07;2.55;;;;;;;16.99;37.49;101846.47;20823096;28;20551;-70
2021/03/29 11:36:40;;;;;;;5.50;1.50;;;;;;;16.90;32.90;101840.88;20860961;28;20099;-70
2021/03/29 11:46:41;;;;;;;5.20;1.80;;;;;;;17.12;35.83;101838.66;20918611;28;20090;-70
2021/03/29 11:56:42;;;;;;;6.22;1.85;;;;;;;17.13;35.23;101827.16;20919164;28;20722;-70
2021/03/29 12:16:52;;;;;;;7.18;1.83;;;;;;;17.74;32.15;101829.66;20918469;28;20049;-70
2021/03/29 12:26:53;;;;;;;8.50;2.40;;;;;;;17.87;32.99;101819.16;20917197;28;20052;-69
2021/03/29 12:36:56;;;;;;;6.22;1.88;;;;;;;17.85;32.87;101821.03;20925309;28;20045;-69
2021/03/29 12:46:59;;;;;;;6.13;2.00;;;;;;;18.38;33.04;101801.78;20931139;28;20046;-69
2021/03/29 12:57:00;;;;;;;6.68;1.70;;;;;;;17.92;31.90;101798.53;20844400;28;20452;-69
2021/03/29 13:07:23;;;;;;;6.88;1.83;;;;;;;18.20;31.35;101779.94;20829874;28;20041;-69
2021/03/29 13:17:26;;;;;;;6.05;1.60;;;;;;;18.28;31.97;101768.84;20830425;28;20045;-69
2021/03/29 13:27:27;;;;;;;7.60;2.00;;;;;;;18.50;31.04;101762.97;20828193;28;20053;-69
2021/03/29 13:37:28;;;;;;;7.20;2.20;;;;;;;18.69;30.71;101751.09;20838458;28;20102;-69
2021/03/29 13:47:29;;;;;;;7.47;2.28;;;;;;;18.59;32.20;101747.34;20893937;28;20068;-69
2021/03/29 13:57:30;;;;;;;7.10;2.00;;;;;;;18.68;31.78;101736.16;20826911;28;20448;-70
2021/03/29 14:07:31;;;;;;;4.95;1.70;;;;;;;18.66;31.48;101732.75;20827487;28;20046;-70
2021/03/29 14:17:32;;;;;;;6.75;2.28;;;;;;;18.77;32.33;101716.97;20808176;28;20516;-70
2021/03/29 14:27:33;;;;;;;7.07;2.40;;;;;;;18.57;32.62;101712.13;20824447;28;20054;-71
2021/03/29 14:47:44;;;;;;;4.30;1.70;;;;;;;18.72;32.79;101686.38;20847042;28;20037;-70
2021/03/29 14:57:46;;;;;;;7.78;1.98;;;;;;;18.73;31.61;101693.41;20821835;28;20053;-70
2021/03/29 15:07:47;;;;;;;6.35;1.88;;;;;;;18.75;31.41;101676.41;20851752;28;20073;-71
2021/03/29 15:17:48;;;;;;;5.53;1.80;;;;;;;18.54;32.08;101680.50;20845329;28;20050;-71
2021/03/29 15:27:49;;;;;;;6.57;1.80;;;;;;;18.92;31.15;101675.25;20846858;28;20045;-70
2021/03/29 15:37:50;;;;;;;5.57;2.03;;;;;;;18.76;31.61;101678.09;20838441;28;20049;-71
2021/03/29 15:47:51;;;;;;;4.70;1.95;;;;;;;18.61;31.64;101665.03;20846154;28;20084;-72
2021/03/29 15:58:06;;;;;;;4.13;1.73;;;;;;;18.59;31.28;101661.66;20836627;28;20547;-72
2021/03/29 16:08:07;;;;;;;6.20;1.67;;;;;;;18.40;31.73;101659.34;20848275;28;20547;-73
2021/03/29 16:18:08;;;;;;;5.68;1.70;;;;;;;18.37;31.13;101663.06;20842552;28;20465;-71
2021/03/29 16:28:09;;;;;;;3.92;1.63;;;;;;;18.01;32.09;101662.81;20845054;28;20083;-70
2021/03/29 16:38:10;;;;;;;6.28;2.00;;;;;;;17.94;31.88;101665.00;20834702;28;20140;-72
2021/03/29 16:48:11;;;;;;;7.50;2.05;;;;;;;17.81;32.09;101669.41;20832505;28;20053;-71
2021/03/29 16:58:12;;;;;;;7.05;2.00;;;;;;;17.58;32.26;101664.69;20896145;28;20057;-71
2021/03/29 17:08:13;;;;;;;5.75;1.80;;;;;;;17.19;33.01;101667.16;20911300;28;20392;-71
2021/03/29 17:18:14;;;;;;;5.68;2.30;;;;;;;16.94;33.07;101678.41;20881823;28;20129;-71
2021/03/29 17:28:15;;;;;;;7.18;2.78;;;;;;;16.59;33.63;101677.88;20827731;28;20045;-71
2021/03/29 17:38:16;;;;;;;8.77;3.72;;;;;;;16.36;35.00;101675.66;20827026;28;20037;-71
2021/03/29 17:48:17;;;;;;;9.45;3.70;;;;;;;15.78;36.59;101669.28;20887476;28;20052;-71
2021/03/29 17:58:19;;;;;;;7.82;4.00;;;;;;;15.27;39.17;101688.75;20867238;28;20054;-71
2021/03/29 18:08:20;;;;;;;7.47;2.70;;;;;;;14.82;38.55;101694.66;20825394;28;20065;-71
2021/03/29 18:18:21;;;;;;;7.10;3.42;;;;;;;14.38;40.29;101703.91;20827087;28;20443;-71
2021/03/29 18:28:24;;;;;;;8.00;4.30;;;;;;;14.03;42.33;101710.84;20824987;28;20426;-72
2021/03/29 18:38:26;;;;;;;10.77;4.75;;;;;;;13.79;42.51;101717.28;20846029;28;20111;-72
2021/03/29 18:48:28;;;;;;;7.47;3.30;;;;;;;13.40;42.65;101723.44;20842997;28;20459;-71
2021/03/29 18:58:29;;;;;;;11.88;5.38;;;;;;;13.12;43.43;101733.44;20840697;28;20131;-71
2021/03/29 19:08:32;;;;;;;17.23;8.32;;;;;;;12.81;45.63;101744.38;20818613;28;20107;-71
2021/03/29 19:18:37;;;;;;;13.23;6.70;;;;;;;12.61;46.08;101750.47;20840643;28;20099;-71
2021/03/29 19:28:40;;;;;;;9.18;4.47;;;;;;;12.39;46.88;101754.91;20826744;28;20037;-71
2021/03/29 19:38:48;;;;;;;12.38;5.93;;;;;;;12.20;47.52;101764.41;20821949;28;20041;-70
2021/03/29 19:48:49;;;;;;;9.57;4.63;;;;;;;11.90;48.84;101764.66;20827657;28;20488;-70
2021/03/29 19:59:07;;;;;;;8.80;4.30;;;;;;;11.70;48.72;101758.41;20847343;28;20053;-70
2021/03/29 20:09:25;;;;;;;12.18;5.82;;;;;;;11.64;52.03;101764.75;20860859;28;20037;-69
2021/03/29 20:19:34;;;;;;;9.60;3.95;;;;;;;11.37;49.73;101769.25;20847886;28;20084;-71
2021/03/29 20:29:35;;;;;;;7.18;3.38;;;;;;;11.15;50.30;101760.41;20850450;28;20041;-71
2021/03/29 20:39:37;;;;;;;7.53;3.20;;;;;;;10.78;53.06;101766.03;20846160;28;20043;-71
2021/03/29 20:49:38;;;;;;;5.93;2.60;;;;;;;10.58;52.53;101763.22;20859173;28;20060;-71
2021/03/29 20:59:39;;;;;;;6.70;2.20;;;;;;;10.32;56.18;101750.97;20865656;28;20513;-71
2021/03/29 21:09:41;;;;;;;6.68;2.10;;;;;;;10.07;54.72;101756.06;20848760;28;20515;-72
2021/03/29 21:19:42;;;;;;;12.82;6.03;;;;;;;9.84;55.30;101771.59;20907932;28;20045;-73
2021/03/29 21:40:04;;;;;;;10.13;4.40;;;;;;;9.55;58.22;101769.78;20889010;28;20037;-71
2021/03/29 21:50:07;;;;;;;15.15;5.68;;;;;;;9.37;59.10;101773.78;20823762;28;20069;-71
2021/03/29 22:00:21;;;;;;;11.23;4.85;;;;;;;9.05;59.17;101783.38;20797419;28;20045;-72
2021/03/29 22:10:23;;;;;;;8.70;3.50;;;;;;;8.91;60.00;101778.50;20808785;28;20034;-72
2021/03/29 22:20:26;;;;;;;8.98;3.42;;;;;;;8.80;60.76;101780.53;20798605;28;20053;-72
2021/03/29 22:30:32;;;;;;;8.68;3.47;;;;;;;8.57;62.49;101784.56;20798294;28;20459;-73
2021/03/29 22:40:44;;;;;;;16.00;6.75;;;;;;;8.40;63.17;101781.47;20822593;28;20083;-72
2021/03/29 22:50:45;;;;;;;11.68;4.38;;;;;;;8.36;62.98;101784.19;20879437;28;20045;-72
2021/03/29 23:00:46;;;;;;;6.05;2.83;;;;;;;7.84;64.93;101784.44;20768263;28;20050;-73
2021/03/29 23:10:47;;;;;;;8.55;3.05;;;;;;;7.68;66.19;101787.34;20795377;28;20152;-72
2021/03/29 23:20:48;;;;;;;7.60;2.83;;;;;;;7.48;66.77;101789.50;20896174;28;20095;-73
2021/03/29 23:30:49;;;;;;;7.15;3.20;;;;;;;7.37;67.49;101796.66;20908441;28;20195;-73
2021/03/29 23:40:50;;;;;;;7.85;3.35;;;;;;;7.19;68.08;101794.41;20898977;28;20600;-73
2021/03/29 23:51:02;;;;;;;9.35;4.20;;;;;;;6.93;69.25;101796.59;20840557;28;20041;-73
